< Typhoon 196319 1963 Season Typhoon 196321 >
Typhoon 196320 (MAMIE)
General InformationTrack Information on Google Maps || Disaster Info.ResourceGoogle EarthGE AnimationAtom FeedGeoJSON
Detalied Best Track (Time Zone = UTC)
Year Month Day Hour Lat. Long. Pressure (hPa) Wind (kt) Class Image Chart
1963 10 13 12 19.1 164.0 1008 0 2 -- Chart
1963 10 13 18 19.6 162.5 1006 0 2 -- Chart
1963 10 14 00 20.0 161.0 1004 0 2 -- Chart
1963 10 14 06 20.5 159.8 1000 0 2 -- Chart
1963 10 14 12 20.1 159.3 1000 0 2 -- Chart
1963 10 14 18 19.6 159.0 1000 0 2 -- Chart
1963 10 15 00 19.5 158.6 1000 0 2 -- Chart
1963 10 15 06 19.6 157.4 998 0 9 -- Chart
1963 10 15 12 19.9 156.2 998 0 9 -- Chart
1963 10 15 18 20.7 155.3 990 0 9 -- Chart
1963 10 16 00 21.1 154.6 985 0 9 -- Chart
1963 10 16 06 21.8 153.8 980 0 9 -- Chart
1963 10 16 12 23.0 153.0 980 0 9 -- Chart
1963 10 16 18 24.0 152.1 975 0 9 -- Chart
1963 10 17 00 24.8 151.4 970 0 9 -- Chart
1963 10 17 06 25.8 151.1 965 0 9 -- Chart
1963 10 17 12 27.5 150.4 965 0 9 -- Chart
1963 10 17 18 29.0 150.3 965 0 9 -- Chart
1963 10 18 00 30.6 150.7 970 0 9 -- Chart
1963 10 18 06 32.5 151.4 980 0 9 -- Chart
1963 10 18 12 34.8 153.3 995 0 9 -- Chart
1963 10 18 18 36.8 156.2 1004 0 6 -- Chart
1963 10 19 00 38.7 159.9 1008 0 6 -- Chart
Japan Meteorological Agency Best Track Data | Correction Date : 1989-06-01
< Typhoon 196319 1963 Season Typhoon 196321 >

Help